ADDS METAR Data INFO
IDs: Format: Raw Decoded Include TAF

Data at: 1613 UTC 25 Apr 2018

KCWC 251555Z AUTO 32010KT 10SM VCTSRA SCT010 BKN020 OVC055 09/08 A3032 RMK AO2 LTG DSNT ALQS P0001 T00880076
KCWC 251535Z AUTO 36010KT 10SM -RA SCT008 BKN015 OVC055 09/08 A3029 RMK AO2 LTG DSNT SW THRU NE T00860075
KCWC 251515Z AUTO 34009KT 10SM BKN008 OVC013 09/08 A3029 RMK AO2 LTG DSNT W THRU N T00880080
KCWC 251455Z AUTO 35009G15KT 10SM TSRA SCT008 BKN012 OVC048 09/08 A3029 RMK AO2 LTG DSNT ALQS P0008 60012 T00880079
KCWC 251435Z AUTO 34010G20KT 10SM -VCTSRA SCT012 BKN048 OVC060 09/08 A3030 RMK AO2 LTG DSNT E S AND W P0007 T00900077
KCWC 251415Z AUTO 36010G15KT 7SM -TSRA SCT013 BKN048 OVC060 09/08 A3027 RMK AO2 LTG DSNT ALQS P0006 T00920080
KCWC 251355Z AUTO 35013G19KT 10SM -VCTSRA BKN014 OVC021 10/08 A3028 RMK AO2 LTG DSNT ALQS P0004 T00960080
KCWC 251335Z AUTO 35012G15KT 10SM -VCTSRA SCT012 BKN019 OVC043 10/08 A3028 RMK AO2 LTG DSNT ALQS P0003 T00960082
KCWC 251315Z AUTO 35016KT 10SM VCTSRA BKN018 OVC026 10/08 A3027 RMK AO2 LTG DSNT ALQS T01010076
KCWC 251255Z AUTO 34014G18KT 10SM -VCTSRA SCT017 BKN022 OVC050 11/08 A3027 RMK AO2 LTG DSNT SE THRU SW T01050077
KCWC 251235Z AUTO 36014G19KT 10SM -VCTSRA BKN022 OVC055 11/08 A3024 RMK AO2 LTG DSNT N S AND SW T01070077
KCWC 251215Z AUTO 35014G17KT 10SM OVC055 11/07 A3023 RMK AO2 LTG DSNT NE SW AND W T01110067
KCWC 251155Z AUTO 35017G25KT 10SM VCTS OVC055 12/06 A3022 RMK AO2 T01150064 10204 20115
KCWC 251135Z AUTO 35020G24KT 10SM OVC055 12/06 A3021 RMK AO2 LTG DSNT S AND W T01190058
KCWC 251115Z AUTO 36019G30KT 10SM OVC055 12/06 A3020 RMK AO2 LTG DSNT W T01210057
KCWC 251055Z AUTO 36016G26KT 10SM -RA OVC055 12/06 A3018 RMK AO2 T01240061
KCWC 251035Z AUTO 36016G27KT 10SM OVC060 13/06 A3018 RMK AO2 T01260061
KCWC 251015Z AUTO 36017G28KT 10SM OVC060 13/07 A3018 RMK AO2 T01300065
KCWC 250955Z AUTO 36020G27KT 10SM OVC060 14/07 A3018 RMK AO2 LTG DSNT NE T01350068
KCWC 250935Z AUTO 01019G31KT 10SM OVC060 14/08 A3018 RMK AO2 T01410075
KCWC 250915Z AUTO 01020G29KT 10SM BKN060 15/09 A3016 RMK AO2 LTG DSNT NW T01510088
KCWC 250855Z AUTO 01017G25KT 10SM SCT070 16/09 A3015 RMK AO2 T01570094
KCWC 250835Z AUTO 35015KT 10SM BKN070 BKN080 17/10 A3015 RMK AO2 T01670100
KCWC 250815Z AUTO 01017G25KT 10SM OVC070 17/10 A3015 RMK AO2 T01710098
KCWC 250755Z AUTO 36018G25KT 10SM OVC070 18/10 A3016 RMK AO2 T01750096
KCWC 250735Z AUTO 36016G24KT 10SM OVC070 18/10 A3015 RMK AO2 T01780098
KCWC 250715Z AUTO 35012G21KT 10SM OVC070 18/10 A3015 RMK AO2 T01830103
KCWC 250655Z AUTO 01015G21KT 10SM OVC070 19/11 A3015 RMK AO2 T01880107
KCWC 250635Z AUTO 01015G21KT 10SM BKN070 OVC090 19/11 A3015 RMK AO2 T01920108
KCWC 250615Z AUTO 36011G19KT 10SM BKN070 OVC090 20/11 A3014 RMK AO2 LTG DSNT SE T01990105
KCWC 250555Z AUTO 35008KT 10SM OVC070 20/13 A3014 RMK AO2 T02010130 10262 20190 402780111
KCWC 250535Z AUTO 00000KT 10SM BKN080 20/13 A3013 RMK AO2 LTG DSNT E T01990131
KCWC 250515Z AUTO 35003KT 10SM CLR 20/13 A3012 RMK AO2 LTG DSNT SE T01950132
KCWC 250455Z AUTO 15004KT 4SM HZ SCT080 SCT090 19/14 A3010 RMK AO2 T01920135
KCWC 250435Z AUTO 17008KT 10SM VCTS OVC080 20/14 A3010 RMK AO2 LTG DSNT SE T01970135
KCWC 250415Z AUTO 15009KT 10SM TS OVC090 20/13 A3012 RMK AO2 LTG DSNT SE T02030131
KCWC 250355Z AUTO 17007KT 130V190 5SM TS HZ BKN100 BKN110 21/13 A3010 RMK AO2 LTG DSNT SE THRU SW T02070127
KCWC 250335Z AUTO 14008KT 7SM TS OVC090 22/12 A3009 RMK AO2 LTG DSNT SE THRU SW T02150122
KCWC 250315Z AUTO 13007KT 7SM BKN080 BKN100 22/12 A3008 RMK AO2 LTG DSNT S THRU W T02210115
KCWC 250255Z AUTO 07006KT 10SM BKN090 22/12 A3006 RMK AO2 LTG DSNT SW AND W T02240115
KCWC 250235Z AUTO 07007KT 10SM OVC090 23/11 A3007 RMK AO2 T02270113
KCWC 250215Z AUTO 08004KT 10SM BKN090 23/11 A3007 RMK AO2 T02260113
KCWC 250155Z AUTO 06006KT 10SM CLR 23/11 A3005 RMK AO2 T02260114
KCWC 250135Z AUTO 05006KT 10SM CLR 23/12 A3004 RMK AO2 T02260117
KCWC 250115Z AUTO 04006KT 10SM CLR 23/12 A3004 RMK AO2 LTG DSNT SW T02330116
KCWC 250055Z AUTO 05006KT 10SM CLR 24/11 A3004 RMK AO2 T02440112
KCWC 250035Z AUTO 05008KT 10SM CLR 25/11 A3004 RMK AO2 T02530111
KCWC 250015Z AUTO 04009KT 10SM CLR 26/11 A3004 RMK AO2 T02610107
KCWC 242355Z AUTO 05009KT 10SM CLR 26/11 A3004 RMK AO2 T02640111 10278 20246
KCWC 242335Z AUTO 07005KT 10SM CLR 27/11 A3004 RMK AO2 T02670112
KCWC 242315Z AUTO 07006KT 10SM CLR 28/12 A3004 RMK AO2 T02760115
KCWC 242255Z AUTO 06007KT 10SM CLR 28/11 A3003 RMK AO2 T02770111
KCWC 242235Z AUTO 08004KT 10SM CLR 28/11 A3003 RMK AO2 T02760108
KCWC 242215Z AUTO 14004KT 10SM CLR 28/11 A3003 RMK AO2 T02760108
KCWC 242155Z AUTO 10004KT 10SM CLR 28/11 A3004 RMK AO2 T02750108
KCWC 242135Z AUTO 12010G15KT 10SM CLR 27/11 A3003 RMK AO2 T02730107
KCWC 242115Z AUTO 12010KT 7SM CLR 28/11 A3004 RMK AO2 T02760110
KCWC 242055Z AUTO 12009KT 10SM CLR 27/11 A3005 RMK AO2 T02740111
KCWC 242035Z AUTO 10008KT 10SM CLR 28/11 A3005 RMK AO2 T02750107
KCWC 242015Z AUTO 11008G17KT 10SM CLR 27/10 A3006 RMK AO2 T02680101
KCWC 241955Z AUTO 12011KT 10SM CLR 27/10 A3007 RMK AO2 T02670103
KCWC 241935Z AUTO 10008G22KT 080V140 10SM CLR 26/11 A3007 RMK AO2 T02630110
KCWC 241915Z AUTO 10008KT 10SM CLR 26/11 A3008 RMK AO2 T02620113
KCWC 241855Z AUTO 09007KT 10SM CLR 26/11 A3009 RMK AO2 T02590111
KCWC 241835Z AUTO 09008KT 10SM CLR 25/11 A3009 RMK AO2 T02530107
KCWC 241815Z AUTO 08008G14KT 10SM SCT070 25/11 A3011 RMK AO2 T02520109
KCWC 241755Z AUTO 12009G18KT 10SM CLR 25/11 A3011 RMK AO2 T02470107 10247 20111
KCWC 241735Z AUTO 09007G18KT 10SM CLR 25/11 A3013 RMK AO2 T02450107
KCWC 241715Z AUTO 11004KT 10SM CLR 24/10 A3013 RMK AO2 T02380104
KCWC 241655Z AUTO 12008KT 10SM CLR 24/11 A3014 RMK AO2 T02360109
KCWC 241635Z AUTO 10008KT 10SM CLR 23/11 A3014 RMK AO2 T02310112
KCWC 241615Z AUTO 13010G17KT 10SM CLR 23/11 A3014 RMK AO2 T02250111
KCWC 241555Z AUTO 13008G16KT 10SM CLR 22/11 A3015 RMK AO2 T02180110
KCWC 241535Z AUTO 11006KT 10SM CLR 22/12 A3015 RMK AO2 T02180117
KCWC 241515Z AUTO 12005KT 10SM CLR 21/12 A3015 RMK AO2 T02070116
KCWC 241455Z AUTO 10004KT 10SM CLR 20/11 A3015 RMK AO2 T01980111
KCWC 241435Z AUTO 00000KT 10SM CLR 19/12 A3015 RMK AO2 T01870115
KCWC 241415Z AUTO 05003KT 10SM CLR 17/12 A3015 RMK AO2 T01660115
KCWC 241355Z AUTO 02004KT 10SM CLR 15/11 A3015 RMK AO2 T01530109
KCWC 241335Z AUTO 03010KT 10SM CLR 14/11 A3015 RMK AO2 T01420105
KCWC 241315Z AUTO 04006KT 10SM CLR 14/11 A3014 RMK AO2 T01360105
KCWC 241255Z AUTO 03009KT 10SM CLR 13/10 A3013 RMK AO2 T01330102
KCWC 241235Z AUTO 00000KT 10SM CLR 12/10 A3013 RMK AO2 T01240095
KCWC 241215Z AUTO 03010KT 10SM CLR 11/09 A3012 RMK AO2 T01110091
KCWC 241155Z AUTO 03009KT 10SM CLR 12/09 A3011 RMK AO2 T01150090 10142 20115
KCWC 241135Z AUTO 03007KT 10SM CLR 12/09 A3011 RMK AO2 T01160091
KCWC 241115Z AUTO 00000KT 10SM CLR 12/09 A3010 RMK AO2 T01190092
KCWC 241055Z AUTO 00000KT 10SM CLR 12/09 A3010 RMK AO2 T01240093
KCWC 241035Z AUTO 00000KT 10SM CLR 12/09 A3009 RMK AO2 T01220092
KCWC 241015Z AUTO 00000KT 10SM CLR 13/10 A3008 RMK AO2 T01300095
KCWC 240955Z AUTO 00000KT 10SM CLR 13/10 A3007 RMK AO2 T01250095
KCWC 240935Z AUTO 11007KT 10SM CLR 12/09 A3007 RMK AO2 T01210093
KCWC 240915Z AUTO 17003KT 10SM CLR 13/09 A3007 RMK AO2 T01250092
KCWC 240855Z AUTO 14003KT 10SM CLR 13/09 A3006 RMK AO2 T01310094
KCWC 240835Z AUTO 13004KT 10SM CLR 13/09 A3006 RMK AO2 T01330094
KCWC 240815Z AUTO 10008KT 10SM CLR 13/10 A3006 RMK AO2 T01340095
KCWC 240755Z AUTO 09005KT 10SM CLR 13/10 A3006 RMK AO2 T01320097
KCWC 240735Z AUTO 10006KT 10SM CLR 14/10 A3007 RMK AO2 T01350097
KCWC 240715Z AUTO 10010KT 10SM CLR 13/10 A3006 RMK AO2 LTG DSNT NW T01340095
KCWC 240655Z AUTO 00000KT 10SM CLR 14/10 A3007 RMK AO2 T01380097
KCWC 240635Z AUTO 00000KT 10SM CLR 14/10 A3007 RMK AO2 T01400100
KCWC 240615Z AUTO 00000KT 10SM CLR 14/10 A3007 RMK AO2 T01400099
KCWC 240555Z AUTO 13003KT 10SM CLR 14/10 A3007 RMK AO2 T01370102 10233 20136 402360096
KCWC 240535Z AUTO 13003KT 10SM CLR 14/10 A3007 RMK AO2 T01380101
KCWC 240515Z AUTO 00000KT 10SM CLR 15/10 A3007 RMK AO2 T01490099
KCWC 240455Z AUTO 00000KT 10SM CLR 16/10 A3007 RMK AO2 T01550097
KCWC 240435Z AUTO 00000KT 10SM CLR 16/10 A3007 RMK AO2 T01580100
KCWC 240415Z AUTO 00000KT 10SM CLR 17/10 A3007 RMK AO2 T01650097